sensor_id;sensor_type;location;lat;lon;timestamp;pressure;altitude;pressure_sealevel;temperature;humidity
51147;BME280;37207;53.060;18.726;2023-05-19T00:01:41;101980.59;;;9.14;66.82
51147;BME280;37207;53.060;18.726;2023-05-19T00:04:09;101984.00;;;9.13;66.73
51147;BME280;37207;53.060;18.726;2023-05-19T00:06:37;101981.35;;;9.12;66.76
51147;BME280;37207;53.060;18.726;2023-05-19T00:09:04;101980.86;;;9.10;66.88
51147;BME280;37207;53.060;18.726;2023-05-19T00:11:30;101977.67;;;9.08;67.13
51147;BME280;37207;53.060;18.726;2023-05-19T00:13:58;101978.72;;;9.07;67.18
51147;BME280;37207;53.060;18.726;2023-05-19T00:16:25;101977.66;;;9.06;67.23
51147;BME280;37207;53.060;18.726;2023-05-19T00:18:51;101976.02;;;9.05;67.30
51147;BME280;37207;53.060;18.726;2023-05-19T00:21:18;101974.29;;;9.03;67.37
51147;BME280;37207;53.060;18.726;2023-05-19T00:23:44;101974.33;;;9.01;67.25
51147;BME280;37207;53.060;18.726;2023-05-19T00:26:10;101975.08;;;9.00;67.45
51147;BME280;37207;53.060;18.726;2023-05-19T00:28:37;101975.42;;;9.00;67.60
51147;BME280;37207;53.060;18.726;2023-05-19T00:31:04;101974.27;;;8.99;67.47
51147;BME280;37207;53.060;18.726;2023-05-19T00:33:30;101974.28;;;9.00;67.75
51147;BME280;37207;53.060;18.726;2023-05-19T00:36:02;101972.30;;;9.01;68.05
51147;BME280;37207;53.060;18.726;2023-05-19T00:38:34;101973.86;;;9.01;67.86
51147;BME280;37207;53.060;18.726;2023-05-19T00:41:02;101973.91;;;9.02;67.95
51147;BME280;37207;53.060;18.726;2023-05-19T00:43:28;101971.60;;;9.03;67.83
51147;BME280;37207;53.060;18.726;2023-05-19T00:45:59;101968.64;;;9.05;67.99
51147;BME280;37207;53.060;18.726;2023-05-19T00:48:25;101967.94;;;9.07;67.94
51147;BME280;37207;53.060;18.726;2023-05-19T00:50:55;101966.06;;;9.09;68.06
51147;BME280;37207;53.060;18.726;2023-05-19T00:53:27;101962.36;;;9.12;68.06
51147;BME280;37207;53.060;18.726;2023-05-19T00:55:54;101964.65;;;9.14;68.14
51147;BME280;37207;53.060;18.726;2023-05-19T00:58:20;101961.84;;;9.14;67.97
51147;BME280;37207;53.060;18.726;2023-05-19T01:00:46;101965.39;;;9.14;67.89
51147;BME280;37207;53.060;18.726;2023-05-19T01:03:12;101967.79;;;9.12;67.72
51147;BME280;37207;53.060;18.726;2023-05-19T01:05:40;101966.35;;;9.10;67.77
51147;BME280;37207;53.060;18.726;2023-05-19T01:08:07;101966.70;;;9.09;67.68
51147;BME280;37207;53.060;18.726;2023-05-19T01:10:33;101965.65;;;9.07;67.73
51147;BME280;37207;53.060;18.726;2023-05-19T01:13:00;101966.04;;;9.07;67.70
51147;BME280;37207;53.060;18.726;2023-05-19T01:15:27;101969.48;;;9.08;67.87
51147;BME280;37207;53.060;18.726;2023-05-19T01:18:11;101965.55;;;9.08;67.90
51147;BME280;37207;53.060;18.726;2023-05-19T01:20:41;101966.02;;;9.05;67.96
51147;BME280;37207;53.060;18.726;2023-05-19T01:26:34;101968.73;;;9.02;67.82
51147;BME280;37207;53.060;18.726;2023-05-19T01:29:15;101969.50;;;9.02;68.00
51147;BME280;37207;53.060;18.726;2023-05-19T01:31:44;101969.43;;;9.02;67.79
51147;BME280;37207;53.060;18.726;2023-05-19T01:34:13;101971.00;;;9.02;68.07
51147;BME280;37207;53.060;18.726;2023-05-19T01:36:41;101971.28;;;9.03;68.12
51147;BME280;37207;53.060;18.726;2023-05-19T01:39:10;101968.84;;;9.03;68.00
51147;BME280;37207;53.060;18.726;2023-05-19T01:41:40;101968.34;;;9.04;68.25
51147;BME280;37207;53.060;18.726;2023-05-19T01:44:08;101971.99;;;9.05;68.18
51147;BME280;37207;53.060;18.726;2023-05-19T01:46:35;101973.58;;;9.05;68.12
51147;BME280;37207;53.060;18.726;2023-05-19T01:49:03;101971.55;;;9.05;68.14
51147;BME280;37207;53.060;18.726;2023-05-19T01:51:30;101968.02;;;9.04;68.28
51147;BME280;37207;53.060;18.726;2023-05-19T01:53:56;101966.19;;;9.02;68.17
51147;BME280;37207;53.060;18.726;2023-05-19T01:56:40;101966.88;;;9.01;68.28
51147;BME280;37207;53.060;18.726;2023-05-19T01:59:32;101966.52;;;9.00;68.27
51147;BME280;37207;53.060;18.726;2023-05-19T02:02:11;101965.59;;;8.99;68.48
51147;BME280;37207;53.060;18.726;2023-05-19T02:04:50;101962.84;;;8.99;68.43
51147;BME280;37207;53.060;18.726;2023-05-19T02:07:30;101962.42;;;8.98;68.47
51147;BME280;37207;53.060;18.726;2023-05-19T02:10:06;101963.52;;;8.95;68.62
51147;BME280;37207;53.060;18.726;2023-05-19T02:12:36;101968.30;;;8.93;68.56
51147;BME280;37207;53.060;18.726;2023-05-19T02:15:06;101967.35;;;8.93;68.79
51147;BME280;37207;53.060;18.726;2023-05-19T02:17:37;101971.61;;;8.93;68.78
51147;BME280;37207;53.060;18.726;2023-05-19T02:20:07;101968.65;;;8.95;69.04
51147;BME280;37207;53.060;18.726;2023-05-19T02:22:34;101966.10;;;8.96;69.13
51147;BME280;37207;53.060;18.726;2023-05-19T02:25:01;101964.88;;;8.97;69.11
51147;BME280;37207;53.060;18.726;2023-05-19T02:27:27;101965.73;;;8.98;69.14
51147;BME280;37207;53.060;18.726;2023-05-19T02:29:53;101964.83;;;8.96;69.07
51147;BME280;37207;53.060;18.726;2023-05-19T02:32:19;101961.86;;;8.95;69.11
51147;BME280;37207;53.060;18.726;2023-05-19T02:34:45;101963.91;;;8.95;69.19
51147;BME280;37207;53.060;18.726;2023-05-19T02:37:13;101964.87;;;8.95;69.39
51147;BME280;37207;53.060;18.726;2023-05-19T02:39:41;101966.39;;;8.97;69.33
51147;BME280;37207;53.060;18.726;2023-05-19T02:42:07;101965.89;;;8.98;69.33
51147;BME280;37207;53.060;18.726;2023-05-19T02:44:33;101967.30;;;9.00;69.40
51147;BME280;37207;53.060;18.726;2023-05-19T02:46:58;101965.45;;;9.01;69.52
51147;BME280;37207;53.060;18.726;2023-05-19T02:49:24;101963.47;;;9.01;69.46
51147;BME280;37207;53.060;18.726;2023-05-19T02:51:50;101962.47;;;8.99;69.32
51147;BME280;37207;53.060;18.726;2023-05-19T02:54:16;101958.83;;;8.97;69.34
51147;BME280;37207;53.060;18.726;2023-05-19T02:56:42;101956.62;;;8.97;69.37
51147;BME280;37207;53.060;18.726;2023-05-19T02:59:08;101958.48;;;8.98;69.49
51147;BME280;37207;53.060;18.726;2023-05-19T03:01:34;101956.91;;;8.98;69.45
51147;BME280;37207;53.060;18.726;2023-05-19T03:04:02;101960.15;;;9.00;69.52
51147;BME280;37207;53.060;18.726;2023-05-19T03:06:28;101960.64;;;9.01;69.44
51147;BME280;37207;53.060;18.726;2023-05-19T03:08:54;101958.11;;;9.01;69.48
51147;BME280;37207;53.060;18.726;2023-05-19T03:11:20;101957.37;;;9.02;69.50
51147;BME280;37207;53.060;18.726;2023-05-19T03:13:47;101961.49;;;9.04;69.55
51147;BME280;37207;53.060;18.726;2023-05-19T03:16:13;101959.45;;;9.04;69.45
51147;BME280;37207;53.060;18.726;2023-05-19T03:18:40;101959.05;;;9.04;69.59
51147;BME280;37207;53.060;18.726;2023-05-19T03:21:06;101958.25;;;9.04;69.51
51147;BME280;37207;53.060;18.726;2023-05-19T03:23:32;101960.17;;;9.06;69.64
51147;BME280;37207;53.060;18.726;2023-05-19T03:25:58;101962.20;;;9.07;69.72
51147;BME280;37207;53.060;18.726;2023-05-19T03:28:24;101960.15;;;9.07;69.76
51147;BME280;37207;53.060;18.726;2023-05-19T03:30:52;101962.27;;;9.07;69.80
51147;BME280;37207;53.060;18.726;2023-05-19T03:33:22;101963.07;;;9.10;69.96
51147;BME280;37207;53.060;18.726;2023-05-19T03:35:48;101964.66;;;9.12;69.92
51147;BME280;37207;53.060;18.726;2023-05-19T03:38:15;101959.67;;;9.15;69.98
51147;BME280;37207;53.060;18.726;2023-05-19T03:40:47;101961.09;;;9.18;70.44
51147;BME280;37207;53.060;18.726;2023-05-19T03:43:13;101961.94;;;9.18;70.37
51147;BME280;37207;53.060;18.726;2023-05-19T03:45:45;101962.42;;;9.19;70.38
51147;BME280;37207;53.060;18.726;2023-05-19T03:48:30;101965.91;;;9.24;70.54
51147;BME280;37207;53.060;18.726;2023-05-19T03:51:19;101968.17;;;9.27;70.72
51147;BME280;37207;53.060;18.726;2023-05-19T03:53:46;101968.28;;;9.31;70.60
51147;BME280;37207;53.060;18.726;2023-05-19T03:56:13;101969.70;;;9.36;70.87
51147;BME280;37207;53.060;18.726;2023-05-19T03:58:41;101967.91;;;9.39;70.83
51147;BME280;37207;53.060;18.726;2023-05-19T04:01:09;101972.05;;;9.44;70.87
51147;BME280;37207;53.060;18.726;2023-05-19T04:03:36;101968.20;;;9.48;70.92
51147;BME280;37207;53.060;18.726;2023-05-19T04:06:01;101968.77;;;9.52;70.76
51147;BME280;37207;53.060;18.726;2023-05-19T04:08:27;101970.52;;;9.56;70.88
51147;BME280;37207;53.060;18.726;2023-05-19T04:10:53;101973.86;;;9.60;70.91
51147;BME280;37207;53.060;18.726;2023-05-19T04:13:20;101978.64;;;9.63;70.64
51147;BME280;37207;53.060;18.726;2023-05-19T04:15:46;101977.80;;;9.67;70.65
51147;BME280;37207;53.060;18.726;2023-05-19T04:18:12;101981.17;;;9.72;70.67
51147;BME280;37207;53.060;18.726;2023-05-19T04:20:39;101984.85;;;9.75;70.62
51147;BME280;37207;53.060;18.726;2023-05-19T04:23:05;101981.47;;;9.80;70.66
51147;BME280;37207;53.060;18.726;2023-05-19T04:25:31;101979.38;;;9.83;70.51
51147;BME280;37207;53.060;18.726;2023-05-19T04:27:58;101977.90;;;9.85;70.40
51147;BME280;37207;53.060;18.726;2023-05-19T04:30:25;101980.36;;;9.87;70.38
51147;BME280;37207;53.060;18.726;2023-05-19T04:32:53;101979.25;;;9.91;70.41
51147;BME280;37207;53.060;18.726;2023-05-19T04:35:20;101987.38;;;9.96;70.42
51147;BME280;37207;53.060;18.726;2023-05-19T04:37:47;101983.08;;;9.99;70.33
51147;BME280;37207;53.060;18.726;2023-05-19T04:40:15;101988.57;;;10.02;70.28
51147;BME280;37207;53.060;18.726;2023-05-19T04:42:42;101990.13;;;10.05;70.28
51147;BME280;37207;53.060;18.726;2023-05-19T04:45:11;101992.35;;;10.09;70.21
51147;BME280;37207;53.060;18.726;2023-05-19T04:47:40;101989.14;;;10.10;70.04
51147;BME280;37207;53.060;18.726;2023-05-19T04:50:06;101989.50;;;10.14;70.08
51147;BME280;37207;53.060;18.726;2023-05-19T04:52:34;101989.70;;;10.18;70.04
51147;BME280;37207;53.060;18.726;2023-05-19T04:55:00;101987.26;;;10.22;70.20
51147;BME280;37207;53.060;18.726;2023-05-19T04:57:26;101987.73;;;10.29;70.25
51147;BME280;37207;53.060;18.726;2023-05-19T04:59:52;101989.95;;;10.35;70.16
51147;BME280;37207;53.060;18.726;2023-05-19T05:02:25;101991.37;;;10.40;69.96
51147;BME280;37207;53.060;18.726;2023-05-19T05:04:53;101988.73;;;10.42;69.87
51147;BME280;37207;53.060;18.726;2023-05-19T05:07:21;101989.41;;;10.43;69.66
51147;BME280;37207;53.060;18.726;2023-05-19T05:09:48;101992.33;;;10.45;69.71
51147;BME280;37207;53.060;18.726;2023-05-19T05:12:20;101991.74;;;10.46;69.74
51147;BME280;37207;53.060;18.726;2023-05-19T05:14:47;101992.89;;;10.50;69.76
51147;BME280;37207;53.060;18.726;2023-05-19T05:17:13;101993.98;;;10.55;69.93
51147;BME280;37207;53.060;18.726;2023-05-19T05:19:40;101998.17;;;10.58;69.75
51147;BME280;37207;53.060;18.726;2023-05-19T05:22:07;101998.23;;;10.63;69.83
51147;BME280;37207;53.060;18.726;2023-05-19T05:24:34;102000.91;;;10.67;69.77
51147;BME280;37207;53.060;18.726;2023-05-19T05:27:01;102001.09;;;10.71;69.67
51147;BME280;37207;53.060;18.726;2023-05-19T05:29:29;101999.95;;;10.76;69.68
51147;BME280;37207;53.060;18.726;2023-05-19T05:31:55;101998.63;;;10.79;69.66
51147;BME280;37207;53.060;18.726;2023-05-19T05:34:22;101987.85;;;10.85;69.72
51147;BME280;37207;53.060;18.726;2023-05-19T05:36:48;101990.36;;;10.93;69.62
51147;BME280;37207;53.060;18.726;2023-05-19T05:39:13;102002.64;;;10.98;69.29
51147;BME280;37207;53.060;18.726;2023-05-19T05:41:40;102004.88;;;11.02;69.19
51147;BME280;37207;53.060;18.726;2023-05-19T05:44:09;102000.81;;;11.05;69.04
51147;BME280;37207;53.060;18.726;2023-05-19T05:46:37;101998.48;;;11.11;69.21
51147;BME280;37207;53.060;18.726;2023-05-19T05:49:03;101999.00;;;11.17;69.04
51147;BME280;37207;53.060;18.726;2023-05-19T05:51:29;102002.95;;;11.21;68.89
51147;BME280;37207;53.060;18.726;2023-05-19T05:53:58;102003.40;;;11.25;68.86
51147;BME280;37207;53.060;18.726;2023-05-19T05:56:30;101999.53;;;11.31;68.84
51147;BME280;37207;53.060;18.726;2023-05-19T05:58:58;101998.45;;;11.36;68.80
51147;BME280;37207;53.060;18.726;2023-05-19T06:01:25;102003.38;;;11.41;68.67
51147;BME280;37207;53.060;18.726;2023-05-19T06:03:51;102008.12;;;11.47;68.47
51147;BME280;37207;53.060;18.726;2023-05-19T06:06:19;102011.55;;;11.50;68.34
51147;BME280;37207;53.060;18.726;2023-05-19T06:08:45;102011.52;;;11.55;68.33
51147;BME280;37207;53.060;18.726;2023-05-19T06:11:11;102011.94;;;11.57;68.21
51147;BME280;37207;53.060;18.726;2023-05-19T06:13:38;102011.85;;;11.57;68.21
51147;BME280;37207;53.060;18.726;2023-05-19T06:16:09;102012.65;;;11.59;68.15
51147;BME280;37207;53.060;18.726;2023-05-19T06:18:39;102011.13;;;11.60;68.16
51147;BME280;37207;53.060;18.726;2023-05-19T06:21:05;102012.01;;;11.59;67.86
51147;BME280;37207;53.060;18.726;2023-05-19T06:23:31;102017.79;;;11.59;67.87
51147;BME280;37207;53.060;18.726;2023-05-19T06:25:58;102015.29;;;11.59;67.89
51147;BME280;37207;53.060;18.726;2023-05-19T06:28:24;102013.74;;;11.64;68.07
51147;BME280;37207;53.060;18.726;2023-05-19T06:30:50;102011.27;;;11.69;67.96
51147;BME280;37207;53.060;18.726;2023-05-19T06:33:34;102014.48;;;11.73;68.08
51147;BME280;37207;53.060;18.726;2023-05-19T06:36:00;102016.64;;;11.77;68.11
51147;BME280;37207;53.060;18.726;2023-05-19T06:38:27;102014.36;;;11.82;68.14
51147;BME280;37207;53.060;18.726;2023-05-19T06:40:53;102016.59;;;11.86;67.98
51147;BME280;37207;53.060;18.726;2023-05-19T06:43:19;102014.09;;;11.89;67.99
51147;BME280;37207;53.060;18.726;2023-05-19T06:45:53;102017.33;;;11.94;67.87
51147;BME280;37207;53.060;18.726;2023-05-19T06:48:19;102012.46;;;11.97;67.61
51147;BME280;37207;53.060;18.726;2023-05-19T06:50:45;102015.63;;;12.00;67.53
51147;BME280;37207;53.060;18.726;2023-05-19T06:53:11;102017.34;;;12.05;67.52
51147;BME280;37207;53.060;18.726;2023-05-19T06:55:37;102015.37;;;12.09;67.28
51147;BME280;37207;53.060;18.726;2023-05-19T06:58:04;102017.38;;;12.15;67.51
51147;BME280;37207;53.060;18.726;2023-05-19T07:00:29;102017.88;;;12.20;67.47
51147;BME280;37207;53.060;18.726;2023-05-19T07:02:56;102019.35;;;12.24;67.39
51147;BME280;37207;53.060;18.726;2023-05-19T07:05:22;102018.23;;;12.30;67.53
51147;BME280;37207;53.060;18.726;2023-05-19T07:07:51;102016.33;;;12.35;67.63
51147;BME280;37207;53.060;18.726;2023-05-19T07:10:20;102014.94;;;12.40;67.50
51147;BME280;37207;53.060;18.726;2023-05-19T07:12:46;102011.30;;;12.42;67.41
51147;BME280;37207;53.060;18.726;2023-05-19T07:15:13;102012.94;;;12.42;67.34
51147;BME280;37207;53.060;18.726;2023-05-19T07:17:39;102018.42;;;12.42;67.26
51147;BME280;37207;53.060;18.726;2023-05-19T07:20:06;102020.13;;;12.43;67.49
51147;BME280;37207;53.060;18.726;2023-05-19T07:22:35;102019.98;;;12.42;67.25
51147;BME280;37207;53.060;18.726;2023-05-19T07:25:01;102027.26;;;12.41;67.30
51147;BME280;37207;53.060;18.726;2023-05-19T07:27:28;102033.48;;;12.42;67.25
51147;BME280;37207;53.060;18.726;2023-05-19T07:29:54;102031.59;;;12.41;67.05
51147;BME280;37207;53.060;18.726;2023-05-19T07:32:20;102037.17;;;12.42;67.19
51147;BME280;37207;53.060;18.726;2023-05-19T07:34:46;102036.19;;;12.43;66.99
51147;BME280;37207;53.060;18.726;2023-05-19T07:37:12;102037.23;;;12.43;66.95
51147;BME280;37207;53.060;18.726;2023-05-19T07:39:38;102037.97;;;12.42;66.79
51147;BME280;37207;53.060;18.726;2023-05-19T07:42:04;102038.16;;;12.39;66.78
51147;BME280;37207;53.060;18.726;2023-05-19T07:44:30;102035.78;;;12.38;67.02
51147;BME280;37207;53.060;18.726;2023-05-19T07:46:56;102035.81;;;12.39;67.27
51147;BME280;37207;53.060;18.726;2023-05-19T07:49:22;102036.27;;;12.41;67.46
51147;BME280;37207;53.060;18.726;2023-05-19T07:51:47;102032.85;;;12.47;67.50
51147;BME280;37207;53.060;18.726;2023-05-19T07:54:13;102030.31;;;12.54;67.63
51147;BME280;37207;53.060;18.726;2023-05-19T07:56:40;102027.80;;;12.62;67.76
51147;BME280;37207;53.060;18.726;2023-05-19T07:59:06;102023.14;;;12.69;67.49
51147;BME280;37207;53.060;18.726;2023-05-19T08:01:32;102024.79;;;12.74;67.29
51147;BME280;37207;53.060;18.726;2023-05-19T08:03:58;102022.80;;;12.81;67.25
51147;BME280;37207;53.060;18.726;2023-05-19T08:06:24;102021.77;;;12.93;67.61
51147;BME280;37207;53.060;18.726;2023-05-19T08:08:50;102019.56;;;13.06;67.43
51147;BME280;37207;53.060;18.726;2023-05-19T08:11:17;102019.95;;;13.19;67.02
51147;BME280;37207;53.060;18.726;2023-05-19T08:13:42;102015.14;;;13.30;66.65
51147;BME280;37207;53.060;18.726;2023-05-19T08:16:08;102011.48;;;13.40;66.35
51147;BME280;37207;53.060;18.726;2023-05-19T08:18:34;102012.30;;;13.54;66.33
51147;BME280;37207;53.060;18.726;2023-05-19T08:21:00;102011.75;;;13.70;65.98
51147;BME280;37207;53.060;18.726;2023-05-19T08:23:26;102016.64;;;13.85;65.86
51147;BME280;37207;53.060;18.726;2023-05-19T08:25:52;102013.29;;;14.00;65.68
51147;BME280;37207;53.060;18.726;2023-05-19T08:28:18;102014.95;;;14.12;65.44
51147;BME280;37207;53.060;18.726;2023-05-19T08:30:44;102018.35;;;14.25;65.14
51147;BME280;37207;53.060;18.726;2023-05-19T08:33:10;102018.91;;;14.35;65.07
51147;BME280;37207;53.060;18.726;2023-05-19T08:35:36;102020.50;;;14.46;64.83
51147;BME280;37207;53.060;18.726;2023-05-19T08:38:02;102018.99;;;14.55;64.54
51147;BME280;37207;53.060;18.726;2023-05-19T08:40:28;102021.45;;;14.66;64.56
51147;BME280;37207;53.060;18.726;2023-05-19T08:42:56;102020.15;;;14.76;64.40
51147;BME280;37207;53.060;18.726;2023-05-19T08:45:22;102020.80;;;14.88;64.40
51147;BME280;37207;53.060;18.726;2023-05-19T08:47:50;102020.30;;;14.95;63.93
51147;BME280;37207;53.060;18.726;2023-05-19T08:50:20;102018.21;;;15.03;64.16
51147;BME280;37207;53.060;18.726;2023-05-19T08:53:03;102015.60;;;15.14;64.09
51147;BME280;37207;53.060;18.726;2023-05-19T08:58:06;102016.67;;;15.32;63.71
51147;BME280;37207;53.060;18.726;2023-05-19T09:00:32;102017.73;;;15.38;63.22
51147;BME280;37207;53.060;18.726;2023-05-19T09:03:00;102018.28;;;15.44;63.23
51147;BME280;37207;53.060;18.726;2023-05-19T09:05:26;102017.76;;;15.49;63.12
51147;BME280;37207;53.060;18.726;2023-05-19T09:07:52;102022.21;;;15.52;62.99
51147;BME280;37207;53.060;18.726;2023-05-19T09:10:18;102022.29;;;15.56;62.79
51147;BME280;37207;53.060;18.726;2023-05-19T09:12:45;102023.86;;;15.60;62.77
51147;BME280;37207;53.060;18.726;2023-05-19T09:15:12;102018.59;;;15.63;62.81
51147;BME280;37207;53.060;18.726;2023-05-19T09:17:40;102018.52;;;15.66;62.56
51147;BME280;37207;53.060;18.726;2023-05-19T09:20:08;102014.13;;;15.66;62.54
51147;BME280;37207;53.060;18.726;2023-05-19T09:22:43;102009.64;;;15.69;62.57
51147;BME280;37207;53.060;18.726;2023-05-19T09:25:21;102010.16;;;15.69;62.63
51147;BME280;37207;53.060;18.726;2023-05-19T09:27:48;102010.21;;;15.70;62.57
51147;BME280;37207;53.060;18.726;2023-05-19T09:30:18;102010.14;;;15.71;62.82
51147;BME280;37207;53.060;18.726;2023-05-19T09:32:44;102005.63;;;15.72;62.93
51147;BME280;37207;53.060;18.726;2023-05-19T09:35:11;102006.95;;;15.75;62.92
51147;BME280;37207;53.060;18.726;2023-05-19T09:37:41;102005.52;;;15.74;62.73
51147;BME280;37207;53.060;18.726;2023-05-19T09:40:08;102000.14;;;15.70;62.85
51147;BME280;37207;53.060;18.726;2023-05-19T09:42:39;102000.58;;;15.68;62.85
51147;BME280;37207;53.060;18.726;2023-05-19T09:45:06;102001.63;;;15.63;62.79
51147;BME280;37207;53.060;18.726;2023-05-19T09:47:38;101997.41;;;15.58;62.68
51147;BME280;37207;53.060;18.726;2023-05-19T09:50:09;101998.54;;;15.51;62.74
51147;BME280;37207;53.060;18.726;2023-05-19T09:52:36;101997.52;;;15.44;62.92
51147;BME280;37207;53.060;18.726;2023-05-19T09:55:04;101999.96;;;15.39;63.26
51147;BME280;37207;53.060;18.726;2023-05-19T09:57:34;101993.23;;;15.35;63.13
51147;BME280;37207;53.060;18.726;2023-05-19T10:00:04;101988.08;;;15.29;63.37
51147;BME280;37207;53.060;18.726;2023-05-19T10:02:43;101985.98;;;15.24;63.62
51147;BME280;37207;53.060;18.726;2023-05-19T10:05:12;101983.20;;;15.19;63.64
51147;BME280;37207;53.060;18.726;2023-05-19T10:07:42;101984.89;;;15.12;63.60
51147;BME280;37207;53.060;18.726;2023-05-19T10:10:11;101985.10;;;15.09;63.92
51147;BME280;37207;53.060;18.726;2023-05-19T10:12:38;101982.52;;;15.05;63.73
51147;BME280;37207;53.060;18.726;2023-05-19T10:15:11;101983.81;;;14.96;63.97
51147;BME280;37207;53.060;18.726;2023-05-19T10:17:38;101981.22;;;14.93;64.20
51147;BME280;37207;53.060;18.726;2023-05-19T10:20:13;101982.67;;;14.87;64.16
51147;BME280;37207;53.060;18.726;2023-05-19T10:22:41;101978.79;;;14.83;64.28
51147;BME280;37207;53.060;18.726;2023-05-19T10:25:08;101979.29;;;14.79;64.35
51147;BME280;37207;53.060;18.726;2023-05-19T10:27:36;101979.17;;;14.72;64.17
51147;BME280;37207;53.060;18.726;2023-05-19T10:30:08;101978.06;;;14.66;64.69
51147;BME280;37207;53.060;18.726;2023-05-19T10:32:37;101977.76;;;14.62;64.94
51147;BME280;37207;53.060;18.726;2023-05-19T10:37:52;101977.86;;;14.68;65.92
51147;BME280;37207;53.060;18.726;2023-05-19T10:40:26;101979.67;;;14.75;66.05
51147;BME280;37207;53.060;18.726;2023-05-19T10:43:04;101982.45;;;14.81;66.09
51147;BME280;37207;53.060;18.726;2023-05-19T10:45:41;101987.18;;;14.89;66.25
51147;BME280;37207;53.060;18.726;2023-05-19T10:48:13;101987.31;;;14.93;65.95
51147;BME280;37207;53.060;18.726;2023-05-19T10:50:42;101993.99;;;14.95;66.00
51147;BME280;37207;53.060;18.726;2023-05-19T10:53:13;102004.19;;;14.93;65.73
51147;BME280;37207;53.060;18.726;2023-05-19T10:55:54;102003.91;;;14.84;65.65
51147;BME280;37207;53.060;18.726;2023-05-19T11:01:12;102001.20;;;14.55;65.62
51147;BME280;37207;53.060;18.726;2023-05-19T11:03:45;101990.77;;;14.41;65.87
51147;BME280;37207;53.060;18.726;2023-05-19T11:06:32;101988.61;;;14.25;66.06
51147;BME280;37207;53.060;18.726;2023-05-19T11:12:05;101979.17;;;14.04;66.64
51147;BME280;37207;53.060;18.726;2023-05-19T11:14:31;101980.64;;;13.96;67.24
51147;BME280;37207;53.060;18.726;2023-05-19T11:16:58;101980.84;;;13.89;67.23
51147;BME280;37207;53.060;18.726;2023-05-19T11:21:51;101969.91;;;13.75;67.83
51147;BME280;37207;53.060;18.726;2023-05-19T11:24:44;101960.48;;;13.70;68.09
51147;BME280;37207;53.060;18.726;2023-05-19T11:27:31;101957.31;;;13.65;68.44
51147;BME280;37207;53.060;18.726;2023-05-19T11:29:58;101961.64;;;13.60;68.56
51147;BME280;37207;53.060;18.726;2023-05-19T11:32:28;101966.67;;;13.55;68.74
51147;BME280;37207;53.060;18.726;2023-05-19T11:34:55;101974.52;;;13.51;68.69
51147;BME280;37207;53.060;18.726;2023-05-19T11:37:21;101974.86;;;13.47;68.84
51147;BME280;37207;53.060;18.726;2023-05-19T11:39:48;101970.67;;;13.45;69.06
51147;BME280;37207;53.060;18.726;2023-05-19T11:42:14;101969.89;;;13.42;69.03
51147;BME280;37207;53.060;18.726;2023-05-19T11:44:42;101972.95;;;13.39;69.09
51147;BME280;37207;53.060;18.726;2023-05-19T11:47:15;101974.59;;;13.40;69.15
51147;BME280;37207;53.060;18.726;2023-05-19T11:49:49;101969.07;;;13.39;69.19
51147;BME280;37207;53.060;18.726;2023-05-19T11:52:16;101970.49;;;13.38;69.01
51147;BME280;37207;53.060;18.726;2023-05-19T11:54:42;101974.08;;;13.37;69.16
51147;BME280;37207;53.060;18.726;2023-05-19T11:57:09;101971.58;;;13.38;69.01
51147;BME280;37207;53.060;18.726;2023-05-19T11:59:38;101971.70;;;13.39;68.78
51147;BME280;37207;53.060;18.726;2023-05-19T12:04:37;101968.77;;;13.44;68.56
51147;BME280;37207;53.060;18.726;2023-05-19T12:07:03;101975.00;;;13.44;68.55
51147;BME280;37207;53.060;18.726;2023-05-19T12:09:29;101978.75;;;13.47;68.72
51147;BME280;37207;53.060;18.726;2023-05-19T12:11:55;101978.19;;;13.49;68.73
51147;BME280;37207;53.060;18.726;2023-05-19T12:14:20;101978.91;;;13.51;68.85
51147;BME280;37207;53.060;18.726;2023-05-19T12:16:46;101974.52;;;13.54;68.95
51147;BME280;37207;53.060;18.726;2023-05-19T12:19:12;101974.56;;;13.58;69.03
51147;BME280;37207;53.060;18.726;2023-05-19T12:21:38;101976.17;;;13.63;68.72
51147;BME280;37207;53.060;18.726;2023-05-19T12:24:05;101975.51;;;13.67;68.55
51147;BME280;37207;53.060;18.726;2023-05-19T12:26:31;101974.60;;;13.70;68.33
51147;BME280;37207;53.060;18.726;2023-05-19T12:28:57;101970.34;;;13.74;68.46
51147;BME280;37207;53.060;18.726;2023-05-19T12:31:23;101970.85;;;13.78;68.42
51147;BME280;37207;53.060;18.726;2023-05-19T12:33:50;101966.45;;;13.83;68.56
51147;BME280;37207;53.060;18.726;2023-05-19T12:36:17;101962.30;;;13.91;68.53
51147;BME280;37207;53.060;18.726;2023-05-19T12:38:43;101956.40;;;14.03;68.34
51147;BME280;37207;53.060;18.726;2023-05-19T12:41:10;101961.00;;;14.13;68.30
51147;BME280;37207;53.060;18.726;2023-05-19T12:43:39;101960.54;;;14.22;68.19
51147;BME280;37207;53.060;18.726;2023-05-19T12:46:10;101963.20;;;14.29;67.97
51147;BME280;37207;53.060;18.726;2023-05-19T12:48:42;101955.54;;;14.33;67.84
51147;BME280;37207;53.060;18.726;2023-05-19T12:51:09;101955.52;;;14.34;67.87
51147;BME280;37207;53.060;18.726;2023-05-19T12:53:36;101952.73;;;14.34;67.71
51147;BME280;37207;53.060;18.726;2023-05-19T12:56:10;101953.13;;;14.33;67.88
51147;BME280;37207;53.060;18.726;2023-05-19T12:58:37;101946.52;;;14.32;67.65
51147;BME280;37207;53.060;18.726;2023-05-19T13:01:05;101948.03;;;14.28;67.50
51147;BME280;37207;53.060;18.726;2023-05-19T13:03:31;101943.80;;;14.24;67.43
51147;BME280;37207;53.060;18.726;2023-05-19T13:05:57;101948.81;;;14.21;67.38
51147;BME280;37207;53.060;18.726;2023-05-19T13:08:24;101955.91;;;14.16;67.20